sensor_id;sensor_type;location;lat;lon;timestamp;P1;durP1;ratioP1;P2;durP2;ratioP2
73642;SDS011;61938;48.652;9.292;2024-01-27T00:01:34;8.32;;;2.92;;
73642;SDS011;61938;48.652;9.292;2024-01-27T00:03:59;11.90;;;3.80;;
73642;SDS011;61938;48.652;9.292;2024-01-27T00:06:25;8.75;;;2.95;;
73642;SDS011;61938;48.652;9.292;2024-01-27T00:08:51;10.70;;;3.90;;
73642;SDS011;61938;48.652;9.292;2024-01-27T00:11:16;8.68;;;3.30;;
73642;SDS011;61938;48.652;9.292;2024-01-27T00:13:42;11.40;;;3.72;;
73642;SDS011;61938;48.652;9.292;2024-01-27T00:16:08;8.63;;;3.75;;
73642;SDS011;61938;48.652;9.292;2024-01-27T00:18:37;10.43;;;3.85;;
73642;SDS011;61938;48.652;9.292;2024-01-27T00:21:04;12.73;;;3.63;;
73642;SDS011;61938;48.652;9.292;2024-01-27T00:23:30;13.25;;;3.65;;
73642;SDS011;61938;48.652;9.292;2024-01-27T00:25:57;10.95;;;3.55;;
73642;SDS011;61938;48.652;9.292;2024-01-27T00:28:23;14.77;;;4.20;;
73642;SDS011;61938;48.652;9.292;2024-01-27T00:30:48;13.90;;;4.68;;
73642;SDS011;61938;48.652;9.292;2024-01-27T00:33:14;10.43;;;4.00;;
73642;SDS011;61938;48.652;9.292;2024-01-27T00:35:39;7.80;;;3.83;;
73642;SDS011;61938;48.652;9.292;2024-01-27T00:38:05;8.95;;;4.15;;
73642;SDS011;61938;48.652;9.292;2024-01-27T00:40:30;9.52;;;4.18;;
73642;SDS011;61938;48.652;9.292;2024-01-27T00:42:56;11.88;;;5.60;;
73642;SDS011;61938;48.652;9.292;2024-01-27T00:45:21;11.73;;;4.80;;
73642;SDS011;61938;48.652;9.292;2024-01-27T00:47:52;13.15;;;4.82;;
73642;SDS011;61938;48.652;9.292;2024-01-27T00:50:17;10.40;;;3.70;;
73642;SDS011;61938;48.652;9.292;2024-01-27T00:52:43;15.45;;;4.40;;
73642;SDS011;61938;48.652;9.292;2024-01-27T00:55:09;11.05;;;4.47;;
73642;SDS011;61938;48.652;9.292;2024-01-27T00:57:37;13.25;;;4.40;;
73642;SDS011;61938;48.652;9.292;2024-01-27T01:00:04;7.95;;;4.25;;
73642;SDS011;61938;48.652;9.292;2024-01-27T01:02:31;9.38;;;3.88;;
73642;SDS011;61938;48.652;9.292;2024-01-27T01:04:57;8.48;;;4.10;;
73642;SDS011;61938;48.652;9.292;2024-01-27T01:07:22;12.93;;;4.13;;
73642;SDS011;61938;48.652;9.292;2024-01-27T01:09:48;10.23;;;4.20;;
73642;SDS011;61938;48.652;9.292;2024-01-27T01:12:13;13.07;;;4.70;;
73642;SDS011;61938;48.652;9.292;2024-01-27T01:14:40;18.67;;;4.47;;
73642;SDS011;61938;48.652;9.292;2024-01-27T01:17:06;7.35;;;3.97;;
73642;SDS011;61938;48.652;9.292;2024-01-27T01:19:31;9.88;;;4.55;;
73642;SDS011;61938;48.652;9.292;2024-01-27T01:21:57;11.70;;;4.10;;
73642;SDS011;61938;48.652;9.292;2024-01-27T01:24:22;9.05;;;4.35;;
73642;SDS011;61938;48.652;9.292;2024-01-27T01:26:48;10.35;;;4.22;;
73642;SDS011;61938;48.652;9.292;2024-01-27T01:29:13;10.45;;;4.97;;
73642;SDS011;61938;48.652;9.292;2024-01-27T01:31:41;11.57;;;4.00;;
73642;SDS011;61938;48.652;9.292;2024-01-27T01:34:07;8.50;;;3.78;;
73642;SDS011;61938;48.652;9.292;2024-01-27T01:36:33;13.55;;;4.03;;
73642;SDS011;61938;48.652;9.292;2024-01-27T01:38:59;8.80;;;4.43;;
73642;SDS011;61938;48.652;9.292;2024-01-27T01:41:24;9.43;;;4.25;;
73642;SDS011;61938;48.652;9.292;2024-01-27T01:43:50;9.45;;;4.05;;
73642;SDS011;61938;48.652;9.292;2024-01-27T01:46:15;11.35;;;4.13;;
73642;SDS011;61938;48.652;9.292;2024-01-27T01:48:41;8.15;;;3.90;;
73642;SDS011;61938;48.652;9.292;2024-01-27T01:51:07;9.90;;;4.60;;
73642;SDS011;61938;48.652;9.292;2024-01-27T01:53:33;11.15;;;4.70;;
73642;SDS011;61938;48.652;9.292;2024-01-27T01:55:59;8.73;;;3.92;;
73642;SDS011;61938;48.652;9.292;2024-01-27T01:58:26;7.22;;;4.20;;
73642;SDS011;61938;48.652;9.292;2024-01-27T02:00:58;7.40;;;4.22;;
73642;SDS011;61938;48.652;9.292;2024-01-27T02:03:25;8.10;;;4.10;;
73642;SDS011;61938;48.652;9.292;2024-01-27T02:05:50;8.77;;;4.18;;
73642;SDS011;61938;48.652;9.292;2024-01-27T02:08:16;11.75;;;5.43;;
73642;SDS011;61938;48.652;9.292;2024-01-27T02:10:42;11.13;;;4.00;;
73642;SDS011;61938;48.652;9.292;2024-01-27T02:13:20;8.35;;;3.97;;
73642;SDS011;61938;48.652;9.292;2024-01-27T02:15:47;12.00;;;4.53;;
73642;SDS011;61938;48.652;9.292;2024-01-27T02:18:13;11.20;;;4.57;;
73642;SDS011;61938;48.652;9.292;2024-01-27T02:20:39;7.22;;;4.20;;
73642;SDS011;61938;48.652;9.292;2024-01-27T02:23:05;10.68;;;4.70;;
73642;SDS011;61938;48.652;9.292;2024-01-27T02:25:31;15.90;;;4.38;;
73642;SDS011;61938;48.652;9.292;2024-01-27T02:27:56;10.38;;;5.32;;
73642;SDS011;61938;48.652;9.292;2024-01-27T02:30:22;12.63;;;4.65;;
73642;SDS011;61938;48.652;9.292;2024-01-27T02:32:47;7.32;;;4.25;;
73642;SDS011;61938;48.652;9.292;2024-01-27T02:35:13;11.35;;;4.30;;
73642;SDS011;61938;48.652;9.292;2024-01-27T02:37:39;13.35;;;4.80;;
73642;SDS011;61938;48.652;9.292;2024-01-27T02:40:07;8.40;;;4.18;;
73642;SDS011;61938;48.652;9.292;2024-01-27T02:42:34;11.27;;;5.10;;
73642;SDS011;61938;48.652;9.292;2024-01-27T02:45:00;7.57;;;4.30;;
73642;SDS011;61938;48.652;9.292;2024-01-27T02:47:26;11.20;;;5.22;;
73642;SDS011;61938;48.652;9.292;2024-01-27T02:49:51;14.10;;;5.53;;
73642;SDS011;61938;48.652;9.292;2024-01-27T02:52:17;13.15;;;5.63;;
73642;SDS011;61938;48.652;9.292;2024-01-27T02:54:42;12.15;;;5.95;;
73642;SDS011;61938;48.652;9.292;2024-01-27T02:57:09;11.95;;;4.85;;
73642;SDS011;61938;48.652;9.292;2024-01-27T02:59:34;11.35;;;4.82;;
73642;SDS011;61938;48.652;9.292;2024-01-27T03:02:00;9.02;;;5.03;;
73642;SDS011;61938;48.652;9.292;2024-01-27T03:04:26;12.07;;;5.10;;
73642;SDS011;61938;48.652;9.292;2024-01-27T03:06:51;10.77;;;4.40;;
73642;SDS011;61938;48.652;9.292;2024-01-27T03:09:17;11.73;;;4.80;;
73642;SDS011;61938;48.652;9.292;2024-01-27T03:11:43;13.05;;;5.20;;
73642;SDS011;61938;48.652;9.292;2024-01-27T03:14:08;10.52;;;4.85;;
73642;SDS011;61938;48.652;9.292;2024-01-27T03:16:35;13.15;;;4.88;;
73642;SDS011;61938;48.652;9.292;2024-01-27T03:19:01;8.82;;;4.88;;
73642;SDS011;61938;48.652;9.292;2024-01-27T03:21:26;13.70;;;5.25;;
73642;SDS011;61938;48.652;9.292;2024-01-27T03:23:52;11.77;;;4.80;;
73642;SDS011;61938;48.652;9.292;2024-01-27T03:26:18;10.90;;;4.50;;
73642;SDS011;61938;48.652;9.292;2024-01-27T03:28:43;8.98;;;3.75;;
73642;SDS011;61938;48.652;9.292;2024-01-27T03:31:09;8.88;;;4.22;;
73642;SDS011;61938;48.652;9.292;2024-01-27T03:33:34;8.65;;;4.55;;
73642;SDS011;61938;48.652;9.292;2024-01-27T03:36:00;11.30;;;4.35;;
73642;SDS011;61938;48.652;9.292;2024-01-27T03:38:25;7.07;;;4.03;;
73642;SDS011;61938;48.652;9.292;2024-01-27T03:40:51;9.63;;;3.88;;
73642;SDS011;61938;48.652;9.292;2024-01-27T03:43:17;10.23;;;4.28;;
73642;SDS011;61938;48.652;9.292;2024-01-27T03:45:42;10.80;;;4.10;;
73642;SDS011;61938;48.652;9.292;2024-01-27T03:48:08;9.93;;;4.18;;
73642;SDS011;61938;48.652;9.292;2024-01-27T03:50:33;11.93;;;4.53;;
73642;SDS011;61938;48.652;9.292;2024-01-27T03:52:59;8.73;;;4.65;;
73642;SDS011;61938;48.652;9.292;2024-01-27T03:55:24;11.88;;;4.65;;
73642;SDS011;61938;48.652;9.292;2024-01-27T03:57:50;9.63;;;4.68;;
73642;SDS011;61938;48.652;9.292;2024-01-27T04:00:15;10.77;;;4.20;;
73642;SDS011;61938;48.652;9.292;2024-01-27T04:02:41;14.05;;;6.10;;
73642;SDS011;61938;48.652;9.292;2024-01-27T04:05:06;11.88;;;5.65;;
73642;SDS011;61938;48.652;9.292;2024-01-27T04:07:32;10.93;;;5.65;;
73642;SDS011;61938;48.652;9.292;2024-01-27T04:09:59;13.95;;;5.45;;
73642;SDS011;61938;48.652;9.292;2024-01-27T04:12:26;11.65;;;5.35;;
73642;SDS011;61938;48.652;9.292;2024-01-27T04:14:52;13.90;;;5.38;;
73642;SDS011;61938;48.652;9.292;2024-01-27T04:17:17;11.98;;;4.95;;
73642;SDS011;61938;48.652;9.292;2024-01-27T04:19:43;19.17;;;4.95;;
73642;SDS011;61938;48.652;9.292;2024-01-27T04:22:08;8.45;;;4.47;;
73642;SDS011;61938;48.652;9.292;2024-01-27T04:24:34;11.80;;;4.60;;
73642;SDS011;61938;48.652;9.292;2024-01-27T04:26:59;10.05;;;4.00;;
73642;SDS011;61938;48.652;9.292;2024-01-27T04:29:27;11.48;;;4.20;;
73642;SDS011;61938;48.652;9.292;2024-01-27T04:31:52;11.15;;;3.85;;
73642;SDS011;61938;48.652;9.292;2024-01-27T04:34:18;8.57;;;3.90;;
73642;SDS011;61938;48.652;9.292;2024-01-27T04:36:43;7.28;;;3.42;;
73642;SDS011;61938;48.652;9.292;2024-01-27T04:39:09;15.88;;;3.67;;
73642;SDS011;61938;48.652;9.292;2024-01-27T04:41:34;10.93;;;4.10;;
73642;SDS011;61938;48.652;9.292;2024-01-27T04:44:05;7.32;;;3.95;;
73642;SDS011;61938;48.652;9.292;2024-01-27T04:46:31;15.05;;;4.40;;
73642;SDS011;61938;48.652;9.292;2024-01-27T04:48:56;16.08;;;3.90;;
73642;SDS011;61938;48.652;9.292;2024-01-27T04:51:22;9.18;;;4.28;;
73642;SDS011;61938;48.652;9.292;2024-01-27T04:53:47;9.40;;;4.38;;
73642;SDS011;61938;48.652;9.292;2024-01-27T04:56:13;9.70;;;4.13;;
73642;SDS011;61938;48.652;9.292;2024-01-27T04:58:38;14.38;;;4.22;;
73642;SDS011;61938;48.652;9.292;2024-01-27T05:01:04;10.50;;;4.43;;
73642;SDS011;61938;48.652;9.292;2024-01-27T05:03:29;8.65;;;4.45;;
73642;SDS011;61938;48.652;9.292;2024-01-27T05:05:55;9.65;;;4.40;;
73642;SDS011;61938;48.652;9.292;2024-01-27T05:08:21;14.93;;;4.47;;
73642;SDS011;61938;48.652;9.292;2024-01-27T05:10:46;15.88;;;4.43;;
73642;SDS011;61938;48.652;9.292;2024-01-27T05:13:12;14.60;;;4.10;;
73642;SDS011;61938;48.652;9.292;2024-01-27T05:15:37;9.18;;;4.15;;
73642;SDS011;61938;48.652;9.292;2024-01-27T05:18:03;11.52;;;4.40;;
73642;SDS011;61938;48.652;9.292;2024-01-27T05:20:28;7.68;;;4.03;;
73642;SDS011;61938;48.652;9.292;2024-01-27T05:22:54;13.50;;;6.03;;
73642;SDS011;61938;48.652;9.292;2024-01-27T05:25:19;16.75;;;6.93;;
73642;SDS011;61938;48.652;9.292;2024-01-27T05:27:45;18.17;;;7.38;;
73642;SDS011;61938;48.652;9.292;2024-01-27T05:30:10;28.17;;;12.10;;
73642;SDS011;61938;48.652;9.292;2024-01-27T05:32:36;30.42;;;11.40;;
73642;SDS011;61938;48.652;9.292;2024-01-27T05:35:02;29.48;;;12.15;;
73642;SDS011;61938;48.652;9.292;2024-01-27T05:37:28;25.15;;;12.38;;
73642;SDS011;61938;48.652;9.292;2024-01-27T05:39:54;33.47;;;15.73;;
73642;SDS011;61938;48.652;9.292;2024-01-27T05:42:20;27.73;;;13.82;;
73642;SDS011;61938;48.652;9.292;2024-01-27T05:44:46;30.85;;;14.68;;
73642;SDS011;61938;48.652;9.292;2024-01-27T05:47:12;24.13;;;12.00;;
73642;SDS011;61938;48.652;9.292;2024-01-27T05:49:37;25.52;;;11.05;;
73642;SDS011;61938;48.652;9.292;2024-01-27T05:52:03;19.60;;;8.85;;
73642;SDS011;61938;48.652;9.292;2024-01-27T05:54:29;19.00;;;8.88;;
73642;SDS011;61938;48.652;9.292;2024-01-27T05:56:54;16.00;;;8.43;;
73642;SDS011;61938;48.652;9.292;2024-01-27T05:59:20;15.18;;;7.00;;
73642;SDS011;61938;48.652;9.292;2024-01-27T06:01:46;17.10;;;7.30;;
73642;SDS011;61938;48.652;9.292;2024-01-27T06:04:11;15.63;;;6.35;;
73642;SDS011;61938;48.652;9.292;2024-01-27T06:06:40;15.57;;;7.75;;
73642;SDS011;61938;48.652;9.292;2024-01-27T06:09:06;13.77;;;6.32;;
73642;SDS011;61938;48.652;9.292;2024-01-27T06:11:38;20.05;;;7.00;;
73642;SDS011;61938;48.652;9.292;2024-01-27T06:14:04;15.32;;;6.38;;
73642;SDS011;61938;48.652;9.292;2024-01-27T06:16:30;15.27;;;7.35;;
73642;SDS011;61938;48.652;9.292;2024-01-27T06:18:55;13.88;;;6.38;;
73642;SDS011;61938;48.652;9.292;2024-01-27T06:21:21;14.30;;;6.72;;
73642;SDS011;61938;48.652;9.292;2024-01-27T06:23:46;17.77;;;7.32;;
73642;SDS011;61938;48.652;9.292;2024-01-27T06:26:13;22.52;;;8.93;;
73642;SDS011;61938;48.652;9.292;2024-01-27T06:28:39;18.98;;;9.10;;
73642;SDS011;61938;48.652;9.292;2024-01-27T06:31:05;13.85;;;6.95;;
73642;SDS011;61938;48.652;9.292;2024-01-27T06:33:31;13.13;;;5.72;;
73642;SDS011;61938;48.652;9.292;2024-01-27T06:35:56;14.07;;;4.90;;
73642;SDS011;61938;48.652;9.292;2024-01-27T06:38:22;10.40;;;4.40;;
73642;SDS011;61938;48.652;9.292;2024-01-27T06:40:48;8.32;;;3.83;;
73642;SDS011;61938;48.652;9.292;2024-01-27T06:43:13;15.05;;;4.45;;
73642;SDS011;61938;48.652;9.292;2024-01-27T06:45:39;13.77;;;4.35;;
73642;SDS011;61938;48.652;9.292;2024-01-27T06:48:05;8.05;;;3.25;;
73642;SDS011;61938;48.652;9.292;2024-01-27T06:50:31;9.77;;;4.05;;
73642;SDS011;61938;48.652;9.292;2024-01-27T06:52:57;12.95;;;4.15;;
73642;SDS011;61938;48.652;9.292;2024-01-27T06:55:23;10.10;;;3.85;;
73642;SDS011;61938;48.652;9.292;2024-01-27T06:57:48;9.85;;;3.78;;
73642;SDS011;61938;48.652;9.292;2024-01-27T07:00:14;7.25;;;4.10;;
73642;SDS011;61938;48.652;9.292;2024-01-27T07:02:40;12.95;;;4.45;;
73642;SDS011;61938;48.652;9.292;2024-01-27T07:05:09;12.00;;;4.60;;
73642;SDS011;61938;48.652;9.292;2024-01-27T07:07:34;12.18;;;4.35;;
73642;SDS011;61938;48.652;9.292;2024-01-27T07:10:00;7.70;;;4.03;;
73642;SDS011;61938;48.652;9.292;2024-01-27T07:12:26;11.52;;;4.32;;
73642;SDS011;61938;48.652;9.292;2024-01-27T07:14:52;7.13;;;3.65;;
73642;SDS011;61938;48.652;9.292;2024-01-27T07:17:19;10.90;;;4.40;;
73642;SDS011;61938;48.652;9.292;2024-01-27T07:19:44;9.13;;;4.10;;
73642;SDS011;61938;48.652;9.292;2024-01-27T07:22:10;11.77;;;4.43;;
73642;SDS011;61938;48.652;9.292;2024-01-27T07:24:35;11.50;;;3.95;;
73642;SDS011;61938;48.652;9.292;2024-01-27T07:27:01;15.10;;;5.45;;
73642;SDS011;61938;48.652;9.292;2024-01-27T07:29:28;12.30;;;6.32;;
73642;SDS011;61938;48.652;9.292;2024-01-27T07:31:53;14.65;;;6.30;;
73642;SDS011;61938;48.652;9.292;2024-01-27T07:34:19;11.90;;;5.90;;
73642;SDS011;61938;48.652;9.292;2024-01-27T07:36:44;11.30;;;5.50;;
73642;SDS011;61938;48.652;9.292;2024-01-27T07:39:10;7.93;;;4.30;;
73642;SDS011;61938;48.652;9.292;2024-01-27T07:41:36;16.52;;;5.47;;
73642;SDS011;61938;48.652;9.292;2024-01-27T07:44:11;15.15;;;4.68;;
73642;SDS011;61938;48.652;9.292;2024-01-27T07:46:38;14.73;;;4.60;;
73642;SDS011;61938;48.652;9.292;2024-01-27T07:49:05;13.95;;;4.43;;
73642;SDS011;61938;48.652;9.292;2024-01-27T07:51:31;18.13;;;6.78;;
73642;SDS011;61938;48.652;9.292;2024-01-27T07:53:58;16.92;;;7.05;;
73642;SDS011;61938;48.652;9.292;2024-01-27T07:56:23;17.58;;;7.72;;
73642;SDS011;61938;48.652;9.292;2024-01-27T07:58:49;20.73;;;7.03;;
73642;SDS011;61938;48.652;9.292;2024-01-27T08:01:15;20.30;;;8.63;;
73642;SDS011;61938;48.652;9.292;2024-01-27T08:03:41;29.85;;;10.73;;
73642;SDS011;61938;48.652;9.292;2024-01-27T08:06:07;26.15;;;11.20;;
73642;SDS011;61938;48.652;9.292;2024-01-27T08:08:39;25.38;;;10.88;;
73642;SDS011;61938;48.652;9.292;2024-01-27T08:11:04;27.98;;;12.35;;
73642;SDS011;61938;48.652;9.292;2024-01-27T08:13:30;28.70;;;13.27;;
73642;SDS011;61938;48.652;9.292;2024-01-27T08:15:55;39.40;;;13.90;;
73642;SDS011;61938;48.652;9.292;2024-01-27T08:18:21;21.52;;;10.30;;
73642;SDS011;61938;48.652;9.292;2024-01-27T08:20:46;27.63;;;11.40;;
73642;SDS011;61938;48.652;9.292;2024-01-27T08:23:12;18.25;;;9.27;;
73642;SDS011;61938;48.652;9.292;2024-01-27T08:25:37;22.08;;;7.55;;
73642;SDS011;61938;48.652;9.292;2024-01-27T08:28:04;18.75;;;8.50;;
73642;SDS011;61938;48.652;9.292;2024-01-27T08:30:30;14.52;;;6.53;;
73642;SDS011;61938;48.652;9.292;2024-01-27T08:32:55;12.25;;;5.82;;
73642;SDS011;61938;48.652;9.292;2024-01-27T08:35:21;14.23;;;6.20;;
73642;SDS011;61938;48.652;9.292;2024-01-27T08:37:46;9.70;;;5.38;;
73642;SDS011;61938;48.652;9.292;2024-01-27T08:40:12;10.98;;;5.78;;
73642;SDS011;61938;48.652;9.292;2024-01-27T08:42:38;9.80;;;5.22;;
73642;SDS011;61938;48.652;9.292;2024-01-27T08:45:04;11.85;;;5.78;;
73642;SDS011;61938;48.652;9.292;2024-01-27T08:47:31;11.20;;;5.93;;
73642;SDS011;61938;48.652;9.292;2024-01-27T08:49:57;8.95;;;5.10;;
73642;SDS011;61938;48.652;9.292;2024-01-27T08:52:22;12.88;;;5.45;;
73642;SDS011;61938;48.652;9.292;2024-01-27T08:54:48;14.10;;;6.45;;
73642;SDS011;61938;48.652;9.292;2024-01-27T08:57:13;10.15;;;6.25;;
73642;SDS011;61938;48.652;9.292;2024-01-27T08:59:39;11.98;;;6.22;;
73642;SDS011;61938;48.652;9.292;2024-01-27T09:02:04;13.10;;;6.25;;
73642;SDS011;61938;48.652;9.292;2024-01-27T09:04:30;16.95;;;6.10;;
73642;SDS011;61938;48.652;9.292;2024-01-27T09:06:55;13.95;;;6.10;;
73642;SDS011;61938;48.652;9.292;2024-01-27T09:09:21;13.85;;;6.20;;
73642;SDS011;61938;48.652;9.292;2024-01-27T09:11:46;14.00;;;6.43;;
73642;SDS011;61938;48.652;9.292;2024-01-27T09:14:13;11.38;;;5.53;;
73642;SDS011;61938;48.652;9.292;2024-01-27T09:16:39;14.32;;;6.70;;
73642;SDS011;61938;48.652;9.292;2024-01-27T09:19:05;15.30;;;7.53;;
73642;SDS011;61938;48.652;9.292;2024-01-27T09:21:30;12.73;;;6.78;;
73642;SDS011;61938;48.652;9.292;2024-01-27T09:23:57;19.50;;;8.05;;
73642;SDS011;61938;48.652;9.292;2024-01-27T09:26:23;14.68;;;7.78;;
73642;SDS011;61938;48.652;9.292;2024-01-27T09:28:49;13.93;;;6.65;;
73642;SDS011;61938;48.652;9.292;2024-01-27T09:31:23;19.20;;;7.28;;
73642;SDS011;61938;48.652;9.292;2024-01-27T09:33:50;17.30;;;7.45;;
73642;SDS011;61938;48.652;9.292;2024-01-27T09:36:20;15.45;;;6.47;;
73642;SDS011;61938;48.652;9.292;2024-01-27T09:38:46;13.77;;;6.70;;
73642;SDS011;61938;48.652;9.292;2024-01-27T09:41:12;16.85;;;8.40;;
73642;SDS011;61938;48.652;9.292;2024-01-27T09:43:41;16.33;;;6.75;;
73642;SDS011;61938;48.652;9.292;2024-01-27T09:46:09;12.63;;;6.32;;
73642;SDS011;61938;48.652;9.292;2024-01-27T09:48:35;13.48;;;7.28;;
73642;SDS011;61938;48.652;9.292;2024-01-27T09:51:01;19.42;;;7.38;;
73642;SDS011;61938;48.652;9.292;2024-01-27T09:53:28;19.08;;;6.78;;
73642;SDS011;61938;48.652;9.292;2024-01-27T09:55:54;14.18;;;6.68;;
73642;SDS011;61938;48.652;9.292;2024-01-27T09:58:23;15.60;;;7.25;;
73642;SDS011;61938;48.652;9.292;2024-01-27T10:00:56;15.05;;;7.55;;
73642;SDS011;61938;48.652;9.292;2024-01-27T10:03:23;17.73;;;7.10;;
73642;SDS011;61938;48.652;9.292;2024-01-27T10:05:50;15.20;;;7.05;;
73642;SDS011;61938;48.652;9.292;2024-01-27T10:08:20;18.83;;;7.60;;
73642;SDS011;61938;48.652;9.292;2024-01-27T10:10:47;12.38;;;6.55;;
73642;SDS011;61938;48.652;9.292;2024-01-27T10:13:15;16.08;;;6.78;;
73642;SDS011;61938;48.652;9.292;2024-01-27T10:15:58;16.52;;;7.57;;
73642;SDS011;61938;48.652;9.292;2024-01-27T10:18:28;17.20;;;7.80;;
73642;SDS011;61938;48.652;9.292;2024-01-27T10:20:54;15.10;;;7.45;;
73642;SDS011;61938;48.652;9.292;2024-01-27T10:23:20;14.48;;;6.68;;
73642;SDS011;61938;48.652;9.292;2024-01-27T10:25:45;15.02;;;7.00;;
73642;SDS011;61938;48.652;9.292;2024-01-27T10:28:11;15.40;;;7.80;;
73642;SDS011;61938;48.652;9.292;2024-01-27T10:30:37;17.83;;;7.25;;
73642;SDS011;61938;48.652;9.292;2024-01-27T10:33:02;15.38;;;7.40;;
73642;SDS011;61938;48.652;9.292;2024-01-27T10:35:28;23.17;;;9.18;;
73642;SDS011;61938;48.652;9.292;2024-01-27T10:37:55;19.00;;;8.02;;
73642;SDS011;61938;48.652;9.292;2024-01-27T10:40:21;14.80;;;6.75;;
73642;SDS011;61938;48.652;9.292;2024-01-27T10:43:04;17.27;;;7.32;;
73642;SDS011;61938;48.652;9.292;2024-01-27T10:45:33;19.63;;;7.43;;
73642;SDS011;61938;48.652;9.292;2024-01-27T10:48:03;19.10;;;8.32;;
73642;SDS011;61938;48.652;9.292;2024-01-27T10:50:32;13.40;;;6.32;;
73642;SDS011;61938;48.652;9.292;2024-01-27T10:53:04;18.67;;;7.13;;
73642;SDS011;61938;48.652;9.292;2024-01-27T10:55:33;14.48;;;6.25;;
73642;SDS011;61938;48.652;9.292;2024-01-27T10:58:02;14.88;;;6.50;;
73642;SDS011;61938;48.652;9.292;2024-01-27T11:00:28;12.70;;;5.50;;
73642;SDS011;61938;48.652;9.292;2024-01-27T11:02:58;11.50;;;5.30;;
73642;SDS011;61938;48.652;9.292;2024-01-27T11:05:24;19.38;;;6.10;;
73642;SDS011;61938;48.652;9.292;2024-01-27T11:07:51;13.63;;;5.95;;
73642;SDS011;61938;48.652;9.292;2024-01-27T11:10:18;14.25;;;5.55;;
73642;SDS011;61938;48.652;9.292;2024-01-27T11:12:43;15.75;;;6.18;;
73642;SDS011;61938;48.652;9.292;2024-01-27T11:15:11;12.82;;;6.28;;
73642;SDS011;61938;48.652;9.292;2024-01-27T11:17:40;11.65;;;6.00;;
73642;SDS011;61938;48.652;9.292;2024-01-27T11:20:07;11.20;;;6.18;;
73642;SDS011;61938;48.652;9.292;2024-01-27T11:22:36;18.58;;;6.65;;
73642;SDS011;61938;48.652;9.292;2024-01-27T11:25:12;12.40;;;5.75;;
73642;SDS011;61938;48.652;9.292;2024-01-27T11:27:41;16.67;;;6.95;;
73642;SDS011;61938;48.652;9.292;2024-01-27T11:30:24;15.20;;;6.05;;
73642;SDS011;61938;48.652;9.292;2024-01-27T11:32:55;15.20;;;6.13;;
73642;SDS011;61938;48.652;9.292;2024-01-27T11:35:22;25.85;;;9.00;;
73642;SDS011;61938;48.652;9.292;2024-01-27T11:37:51;22.00;;;7.68;;
73642;SDS011;61938;48.652;9.292;2024-01-27T11:40:17;15.43;;;6.72;;
73642;SDS011;61938;48.652;9.292;2024-01-27T11:42:43;15.98;;;6.38;;
73642;SDS011;61938;48.652;9.292;2024-01-27T11:45:18;14.80;;;6.20;;
73642;SDS011;61938;48.652;9.292;2024-01-27T11:47:43;15.20;;;6.68;;
73642;SDS011;61938;48.652;9.292;2024-01-27T11:50:09;12.95;;;5.40;;
73642;SDS011;61938;48.652;9.292;2024-01-27T11:52:34;9.98;;;5.07;;
73642;SDS011;61938;48.652;9.292;2024-01-27T11:55:00;12.25;;;5.63;;
73642;SDS011;61938;48.652;9.292;2024-01-27T11:57:26;14.88;;;6.07;;
73642;SDS011;61938;48.652;9.292;2024-01-27T11:59:52;12.18;;;5.60;;
73642;SDS011;61938;48.652;9.292;2024-01-27T12:02:18;16.40;;;7.57;;
73642;SDS011;61938;48.652;9.292;2024-01-27T12:04:43;18.95;;;6.88;;
73642;SDS011;61938;48.652;9.292;2024-01-27T12:07:09;15.65;;;5.88;;
73642;SDS011;61938;48.652;9.292;2024-01-27T12:09:35;13.00;;;5.93;;
73642;SDS011;61938;48.652;9.292;2024-01-27T12:12:02;18.60;;;6.38;;
73642;SDS011;61938;48.652;9.292;2024-01-27T12:14:38;15.02;;;5.53;;
73642;SDS011;61938;48.652;9.292;2024-01-27T12:17:09;12.00;;;5.28;;
73642;SDS011;61938;48.652;9.292;2024-01-27T12:19:36;16.73;;;5.93;;
73642;SDS011;61938;48.652;9.292;2024-01-27T12:22:02;15.05;;;6.10;;
73642;SDS011;61938;48.652;9.292;2024-01-27T12:24:28;13.38;;;5.53;;
73642;SDS011;61938;48.652;9.292;2024-01-27T12:26:55;14.82;;;6.10;;
73642;SDS011;61938;48.652;9.292;2024-01-27T12:29:22;16.20;;;6.05;;
73642;SDS011;61938;48.652;9.292;2024-01-27T12:31:48;11.95;;;5.47;;
73642;SDS011;61938;48.652;9.292;2024-01-27T12:34:14;14.25;;;4.90;;
73642;SDS011;61938;48.652;9.292;2024-01-27T12:36:42;15.35;;;4.72;;
73642;SDS011;61938;48.652;9.292;2024-01-27T12:39:08;9.07;;;5.05;;
73642;SDS011;61938;48.652;9.292;2024-01-27T12:41:34;14.50;;;4.57;;
73642;SDS011;61938;48.652;9.292;2024-01-27T12:44:00;14.55;;;3.90;;
73642;SDS011;61938;48.652;9.292;2024-01-27T12:46:27;17.00;;;4.47;;
73642;SDS011;61938;48.652;9.292;2024-01-27T12:48:53;11.75;;;4.68;;
73642;SDS011;61938;48.652;9.292;2024-01-27T12:51:19;12.30;;;3.78;;
73642;SDS011;61938;48.652;9.292;2024-01-27T12:53:45;10.82;;;2.97;;
73642;SDS011;61938;48.652;9.292;2024-01-27T12:56:11;47.22;;;4.80;;
73642;SDS011;61938;48.652;9.292;2024-01-27T12:58:38;39.75;;;5.13;;
73642;SDS011;61938;48.652;9.292;2024-01-27T13:01:05;18.08;;;4.00;;
73642;SDS011;61938;48.652;9.292;2024-01-27T13:03:31;18.08;;;3.83;;
73642;SDS011;61938;48.652;9.292;2024-01-27T13:05:57;13.82;;;3.67;;
73642;SDS011;61938;48.652;9.292;2024-01-27T13:08:23;8.05;;;2.95;;
73642;SDS011;61938;48.652;9.292;2024-01-27T13:10:48;10.07;;;3.60;;
73642;SDS011;61938;48.652;9.292;2024-01-27T13:13:14;8.35;;;3.35;;
73642;SDS011;61938;48.652;9.292;2024-01-27T13:15:40;10.45;;;3.33;;
73642;SDS011;61938;48.652;9.292;2024-01-27T13:18:05;10.07;;;3.78;;
73642;SDS011;61938;48.652;9.292;2024-01-27T13:20:31;14.93;;;4.65;;
73642;SDS011;61938;48.652;9.292;2024-01-27T13:22:58;10.85;;;4.35;;
73642;SDS011;61938;48.652;9.292;2024-01-27T13:25:23;15.32;;;4.50;;
73642;SDS011;61938;48.652;9.292;2024-01-27T13:27:49;15.60;;;4.75;;
73642;SDS011;61938;48.652;9.292;2024-01-27T13:30:15;9.95;;;4.30;;
73642;SDS011;61938;48.652;9.292;2024-01-27T13:32:42;11.65;;;4.05;;
73642;SDS011;61938;48.652;9.292;2024-01-27T13:35:08;15.75;;;4.50;;
73642;SDS011;61938;48.652;9.292;2024-01-27T13:37:35;11.65;;;4.43;;
73642;SDS011;61938;48.652;9.292;2024-01-27T13:40:01;18.40;;;5.03;;
73642;SDS011;61938;48.652;9.292;2024-01-27T13:42:27;14.70;;;4.63;;
73642;SDS011;61938;48.652;9.292;2024-01-27T13:44:52;7.22;;;3.78;;
73642;SDS011;61938;48.652;9.292;2024-01-27T13:47:18;11.05;;;5.20;;
73642;SDS011;61938;48.652;9.292;2024-01-27T13:49:44;14.43;;;4.45;;
73642;SDS011;61938;48.652;9.292;2024-01-27T13:52:10;10.07;;;4.03;;
73642;SDS011;61938;48.652;9.292;2024-01-27T13:54:36;13.75;;;4.75;;
73642;SDS011;61938;48.652;9.292;2024-01-27T13:57:02;10.25;;;4.70;;
73642;SDS011;61938;48.652;9.292;2024-01-27T13:59:28;10.60;;;4.60;;
73642;SDS011;61938;48.652;9.292;2024-01-27T14:01:54;13.57;;;4.07;;
73642;SDS011;61938;48.652;9.292;2024-01-27T14:04:21;14.80;;;5.47;;
73642;SDS011;61938;48.652;9.292;2024-01-27T14:06:49;13.20;;;5.35;;
73642;SDS011;61938;48.652;9.292;2024-01-27T14:09:15;16.00;;;5.85;;
73642;SDS011;61938;48.652;9.292;2024-01-27T14:11:40;15.43;;;6.45;;
73642;SDS011;61938;48.652;9.292;2024-01-27T14:14:06;14.13;;;5.70;;
73642;SDS011;61938;48.652;9.292;2024-01-27T14:16:31;14.68;;;5.60;;
73642;SDS011;61938;48.652;9.292;2024-01-27T14:18:57;14.98;;;5.35;;
73642;SDS011;61938;48.652;9.292;2024-01-27T14:21:22;17.13;;;5.90;;
73642;SDS011;61938;48.652;9.292;2024-01-27T14:23:49;22.02;;;6.50;;
73642;SDS011;61938;48.652;9.292;2024-01-27T14:26:14;15.95;;;5.32;;
73642;SDS011;61938;48.652;9.292;2024-01-27T14:28:41;15.80;;;5.53;;
73642;SDS011;61938;48.652;9.292;2024-01-27T14:31:07;11.57;;;4.30;;